createdAt,value
2019-03-15T00:00:56.939Z,15.20
2019-03-15T00:03:27.748Z,15.37
2019-03-15T00:05:57.502Z,14.57
2019-03-15T00:08:27.515Z,12.90
2019-03-15T00:10:57.380Z,13.27
2019-03-15T00:13:27.253Z,12.17
2019-03-15T00:15:57.447Z,14.57
2019-03-15T00:18:27.405Z,15.10
2019-03-15T00:20:57.201Z,14.90
2019-03-15T00:23:27.180Z,12.53
2019-03-15T00:25:56.937Z,15.33
2019-03-15T00:28:26.854Z,14.50
2019-03-15T00:30:56.831Z,16.40
2019-03-15T00:33:26.586Z,17.20
2019-03-15T00:35:56.412Z,18.27
2019-03-15T00:38:26.246Z,16.60
2019-03-15T00:40:56.196Z,16.53
2019-03-15T00:43:26.060Z,17.67
2019-03-15T00:45:55.781Z,15.53
2019-03-15T00:48:25.724Z,17.17
2019-03-15T00:50:55.664Z,15.20
2019-03-15T00:53:25.504Z,13.77
2019-03-15T00:55:55.133Z,13.87
2019-03-15T00:58:24.880Z,10.53
2019-03-15T01:00:54.635Z,16.30
2019-03-15T01:03:24.266Z,16.20
2019-03-15T01:05:55.055Z,16.60
2019-03-15T01:08:24.802Z,16.90
2019-03-15T01:10:54.612Z,17.37
2019-03-15T01:13:24.478Z,16.30
2019-03-15T01:15:54.044Z,15.63
2019-03-15T01:18:23.757Z,18.23
2019-03-15T01:20:53.624Z,15.37
2019-03-15T01:23:23.496Z,17.20
2019-03-15T01:25:53.406Z,17.10
2019-03-15T01:28:23.436Z,18.37
2019-03-15T01:30:53.238Z,16.33
2019-03-15T01:33:23.182Z,17.53
2019-03-15T01:35:53.131Z,17.37
2019-03-15T01:38:22.985Z,16.40
2019-03-15T01:40:52.720Z,17.03
2019-03-15T01:43:22.881Z,17.03
2019-03-15T01:45:53.630Z,15.33
2019-03-15T01:48:23.597Z,16.57
2019-03-15T01:50:53.433Z,18.43
2019-03-15T01:53:23.614Z,19.20
2019-03-15T01:55:53.563Z,20.13
2019-03-15T01:58:23.422Z,17.60
2019-03-15T02:00:53.260Z,18.03
2019-03-15T02:03:23.083Z,15.87
2019-03-15T02:05:52.826Z,18.90
2019-03-15T02:08:23.526Z,17.77
2019-03-15T02:10:53.647Z,17.13
2019-03-15T02:13:23.412Z,18.27
2019-03-15T02:15:53.171Z,16.07
2019-03-15T02:18:23.185Z,20.70
2019-03-15T02:20:53.324Z,16.63
2019-03-15T02:23:23.556Z,15.83
2019-03-15T02:25:53.532Z,18.00
2019-03-15T02:28:23.413Z,17.90
2019-03-15T02:30:53.317Z,16.80
2019-03-15T02:33:23.236Z,17.03
2019-03-15T02:35:53.067Z,17.33
2019-03-15T02:38:22.938Z,19.00
2019-03-15T02:40:52.746Z,19.03
2019-03-15T02:43:22.725Z,20.13
2019-03-15T02:45:52.551Z,16.60
2019-03-15T02:48:22.447Z,15.67
2019-03-15T02:50:52.219Z,18.60
2019-03-15T02:53:22.130Z,18.77
2019-03-15T02:55:52.085Z,20.47
2019-03-15T02:58:21.975Z,19.83
2019-03-15T03:00:51.776Z,19.13
2019-03-15T03:03:21.660Z,20.97
2019-03-15T03:05:51.426Z,21.77
2019-03-15T03:08:21.347Z,23.37
2019-03-15T03:10:53.335Z,29.17
2019-03-15T03:13:23.098Z,25.03
2019-03-15T03:15:53.182Z,24.53
2019-03-15T03:18:22.840Z,21.97
2019-03-15T03:20:52.539Z,22.47
2019-03-15T03:23:22.307Z,21.47
2019-03-15T03:25:52.081Z,21.37
2019-03-15T03:28:21.897Z,29.07
2019-03-15T03:30:51.672Z,29.53
2019-03-15T03:33:21.318Z,21.53
2019-03-15T03:35:51.137Z,24.53
2019-03-15T03:38:21.260Z,21.70
2019-03-15T03:40:51.065Z,23.70
2019-03-15T03:43:20.899Z,21.07
2019-03-15T03:45:50.859Z,24.07
2019-03-15T03:48:20.603Z,25.33
2019-03-15T03:50:50.545Z,19.17
2019-03-15T03:53:20.299Z,21.33
2019-03-15T03:55:50.164Z,18.63
2019-03-15T03:58:20.245Z,15.20
2019-03-15T04:00:50.015Z,21.57
2019-03-15T04:03:20.233Z,22.43
2019-03-15T04:05:50.759Z,24.07
2019-03-15T04:08:20.651Z,27.67
2019-03-15T04:10:51.784Z,35.00
2019-03-15T04:13:21.846Z,31.67
2019-03-15T04:15:52.871Z,29.43
2019-03-15T04:18:22.906Z,31.17
2019-03-15T04:20:52.799Z,31.93
2019-03-15T04:23:22.681Z,34.63
2019-03-15T04:25:52.655Z,33.60
2019-03-15T04:28:22.568Z,30.90
2019-03-15T04:30:52.416Z,31.63
2019-03-15T04:33:22.273Z,31.17
2019-03-15T04:35:52.284Z,31.60
2019-03-15T04:38:22.024Z,26.67
2019-03-15T04:40:51.919Z,29.23
2019-03-15T04:43:21.805Z,27.03
2019-03-15T04:45:51.730Z,27.77
2019-03-15T04:48:21.518Z,23.33
2019-03-15T04:50:51.293Z,25.07
2019-03-15T04:53:21.226Z,24.07
2019-03-15T04:55:50.987Z,21.73
2019-03-15T04:58:20.749Z,20.67
2019-03-15T05:00:50.566Z,27.27
2019-03-15T05:03:21.063Z,25.50
2019-03-15T05:06:02.413Z,24.97
2019-03-15T05:08:22.874Z,26.13
2019-03-15T05:10:52.904Z,24.03
2019-03-15T05:13:22.659Z,31.77
2019-03-15T05:15:52.299Z,25.37
2019-03-15T05:18:22.139Z,24.40
2019-03-15T05:20:52.024Z,32.23
2019-03-15T05:23:21.874Z,23.13
2019-03-15T05:25:51.588Z,22.80
2019-03-15T05:28:21.311Z,22.67
2019-03-15T05:30:51.108Z,24.53
2019-03-15T05:33:21.016Z,26.13
2019-03-15T05:35:50.978Z,26.20
2019-03-15T05:38:20.742Z,29.27
2019-03-15T05:40:50.565Z,28.60
2019-03-15T05:43:20.439Z,33.90
2019-03-15T05:45:50.180Z,24.17
2019-03-15T05:48:20.092Z,27.33
2019-03-15T05:50:51.289Z,26.83
2019-03-15T05:53:21.048Z,27.47
2019-03-15T05:55:51.012Z,26.83
2019-03-15T05:58:22.098Z,27.63
2019-03-15T06:00:52.262Z,24.83
2019-03-15T06:03:22.072Z,26.97
2019-03-15T06:05:52.025Z,23.07
2019-03-15T06:08:22.014Z,24.53
2019-03-15T06:10:54.669Z,23.47
2019-03-15T06:13:23.652Z,26.17
2019-03-15T06:15:53.379Z,26.10
2019-03-15T06:18:23.213Z,25.90
2019-03-15T06:20:53.059Z,28.13
2019-03-15T06:23:22.862Z,22.90
2019-03-15T06:25:52.935Z,23.93
2019-03-15T06:28:22.894Z,28.60
2019-03-15T06:30:52.892Z,29.77
2019-03-15T06:33:22.690Z,25.57
2019-03-15T06:35:52.667Z,31.60
2019-03-15T06:38:22.427Z,26.03
2019-03-15T06:40:52.264Z,21.70
2019-03-15T06:43:22.165Z,22.63
2019-03-15T06:45:52.111Z,24.63
2019-03-15T06:48:21.999Z,24.87
2019-03-15T06:50:51.936Z,26.07
2019-03-15T06:53:21.779Z,28.67
2019-03-15T06:55:51.558Z,24.37
2019-03-15T06:58:21.399Z,21.20
2019-03-15T07:00:54.362Z,21.67
2019-03-15T07:03:22.517Z,24.33
2019-03-15T07:05:52.465Z,22.50
2019-03-15T07:08:22.262Z,28.93
2019-03-15T07:10:51.967Z,23.03
2019-03-15T07:13:21.750Z,20.40
2019-03-15T07:15:51.621Z,20.33
2019-03-15T07:18:21.636Z,21.33
2019-03-15T07:20:51.429Z,18.83
2019-03-15T07:23:21.149Z,20.03
2019-03-15T07:25:50.941Z,18.87
2019-03-15T07:28:20.781Z,22.83
2019-03-15T07:30:50.704Z,20.50
2019-03-15T07:33:23.135Z,23.87
2019-03-15T07:35:53.399Z,20.27
2019-03-15T07:38:23.230Z,21.97
2019-03-15T07:40:53.150Z,20.73
2019-03-15T07:43:23.043Z,24.07
2019-03-15T07:45:52.854Z,23.57
2019-03-15T07:48:23.232Z,23.97
2019-03-15T07:50:54.257Z,17.33
2019-03-15T07:53:24.017Z,20.70
2019-03-15T07:55:53.841Z,19.70
2019-03-15T07:58:23.805Z,19.27
2019-03-15T08:00:53.676Z,24.50
2019-03-15T08:03:23.717Z,18.73
2019-03-15T08:05:53.553Z,20.17
2019-03-15T08:08:23.564Z,19.43
2019-03-15T08:10:54.978Z,19.33
2019-03-15T08:13:25.057Z,15.90
2019-03-15T08:15:54.933Z,18.87
2019-03-15T08:18:24.727Z,20.53
2019-03-15T08:20:54.794Z,23.73
2019-03-15T08:23:24.852Z,18.70
2019-03-15T08:25:54.698Z,16.67
2019-03-15T08:28:24.533Z,16.90
2019-03-15T08:30:54.338Z,17.53
2019-03-15T08:33:24.213Z,18.33
2019-03-15T08:35:54.142Z,18.30
2019-03-15T08:38:23.861Z,17.17
2019-03-15T08:40:53.815Z,19.63
2019-03-15T08:43:23.648Z,17.00
2019-03-15T08:45:54.423Z,17.93
2019-03-15T08:48:24.391Z,20.00
2019-03-15T08:50:54.324Z,15.90
2019-03-15T08:53:24.123Z,25.47
2019-03-15T08:55:54.305Z,19.30
2019-03-15T08:58:24.027Z,19.73
2019-03-15T09:00:53.823Z,22.50
2019-03-15T09:03:28.246Z,20.07
2019-03-15T09:05:55.304Z,22.37
2019-03-15T09:08:25.051Z,19.43
2019-03-15T09:10:56.056Z,25.03
2019-03-15T09:13:25.873Z,25.27
2019-03-15T09:15:55.581Z,31.07
2019-03-15T09:18:25.570Z,23.80
2019-03-15T09:20:55.307Z,24.13
2019-03-15T09:23:25.161Z,22.90
2019-03-15T09:25:54.848Z,23.43
2019-03-15T09:28:24.550Z,22.50
2019-03-15T09:30:54.413Z,25.60
2019-03-15T09:33:24.168Z,20.70
2019-03-15T09:35:54.158Z,19.07
2019-03-15T09:38:23.808Z,17.93
2019-03-15T09:40:53.764Z,18.83
2019-03-15T09:43:24.689Z,24.17
2019-03-15T09:45:55.596Z,18.07
2019-03-15T09:48:25.617Z,16.67
2019-03-15T09:50:56.684Z,13.27
2019-03-15T09:53:26.474Z,15.50
2019-03-15T09:55:56.168Z,16.20
2019-03-15T09:58:25.953Z,11.47
2019-03-15T10:00:55.767Z,8.17
2019-03-15T10:03:25.449Z,11.80
2019-03-15T10:05:55.144Z,11.27
2019-03-15T10:08:24.928Z,13.60
2019-03-15T10:10:54.772Z,10.07
2019-03-15T10:13:24.721Z,10.33
2019-03-15T10:15:55.842Z,9.00
2019-03-15T10:18:25.797Z,9.17
2019-03-15T10:20:55.551Z,7.30
2019-03-15T10:23:25.319Z,8.90
2019-03-15T10:25:55.093Z,6.37
2019-03-15T10:28:24.806Z,9.17
2019-03-15T10:30:54.651Z,5.37
2019-03-15T10:33:24.527Z,8.87
2019-03-15T10:35:54.466Z,6.37
2019-03-15T10:38:24.414Z,8.67
2019-03-15T10:40:54.180Z,6.67
2019-03-15T10:43:23.971Z,7.60
2019-03-15T10:45:53.632Z,9.13
2019-03-15T10:48:25.541Z,11.20
2019-03-15T10:50:54.984Z,9.97
2019-03-15T10:53:24.788Z,14.37
2019-03-15T10:56:00.038Z,11.83
2019-03-15T10:58:26.258Z,15.27
2019-03-15T11:00:56.015Z,13.47
2019-03-15T11:03:25.802Z,13.90
2019-03-15T11:05:55.719Z,16.27
2019-03-15T11:08:25.570Z,14.83
2019-03-15T11:10:55.355Z,20.23
2019-03-15T11:13:25.268Z,16.73
2019-03-15T11:15:55.249Z,19.33
2019-03-15T11:18:25.081Z,13.27
2019-03-15T11:20:54.797Z,13.43
2019-03-15T11:23:24.662Z,14.30
2019-03-15T11:25:54.542Z,11.50
2019-03-15T11:28:24.358Z,11.47
2019-03-15T11:30:54.293Z,8.97
2019-03-15T11:33:24.175Z,8.83
2019-03-15T11:35:53.987Z,9.17
2019-03-15T11:38:23.864Z,9.90
2019-03-15T11:40:53.708Z,9.60
2019-03-15T11:43:23.558Z,8.40
2019-03-15T11:45:53.407Z,7.80
2019-03-15T11:48:23.286Z,8.63
2019-03-15T11:50:53.212Z,8.07
2019-03-15T11:53:22.949Z,9.57
2019-03-15T11:55:52.752Z,8.43
2019-03-15T11:58:22.463Z,9.57
2019-03-15T12:00:52.406Z,8.53
2019-03-15T12:03:22.251Z,9.17
2019-03-15T12:05:52.335Z,9.93
2019-03-15T12:08:22.086Z,11.10
2019-03-15T12:10:52.016Z,7.47
2019-03-15T12:13:21.847Z,9.40
2019-03-15T12:15:51.762Z,7.57
2019-03-15T12:18:21.829Z,8.03
2019-03-15T12:20:51.596Z,8.10
2019-03-15T12:23:21.483Z,7.40
2019-03-15T12:25:51.408Z,8.40
2019-03-15T12:28:22.615Z,8.97
2019-03-15T12:30:52.355Z,10.23
2019-03-15T12:33:22.189Z,11.03
2019-03-15T12:35:52.048Z,8.37
2019-03-15T12:38:21.922Z,9.50
2019-03-15T12:40:52.353Z,8.00
2019-03-15T12:43:23.174Z,9.03
2019-03-15T12:45:52.905Z,8.77
2019-03-15T12:48:23.082Z,8.67
2019-03-15T12:50:52.924Z,7.30
2019-03-15T12:53:22.634Z,9.33
2019-03-15T12:55:52.593Z,6.87
2019-03-15T12:58:22.409Z,8.33
2019-03-15T13:00:52.186Z,7.70
2019-03-15T13:03:21.897Z,8.67
2019-03-15T13:05:51.766Z,10.00
2019-03-15T13:08:21.608Z,8.90
2019-03-15T13:10:51.238Z,7.43
2019-03-15T13:13:21.198Z,9.70
2019-03-15T13:15:51.056Z,7.83
2019-03-15T13:18:20.882Z,7.83
2019-03-15T13:20:50.852Z,10.10
2019-03-15T13:23:20.712Z,8.23
2019-03-15T13:25:50.625Z,9.50
2019-03-15T13:28:20.396Z,10.50
2019-03-15T13:30:50.160Z,8.43
2019-03-15T13:33:21.095Z,9.23
2019-03-15T13:35:52.361Z,8.67
2019-03-15T13:38:22.162Z,9.73
2019-03-15T13:40:52.094Z,10.87
2019-03-15T13:43:22.049Z,10.50
2019-03-15T13:45:51.835Z,8.97
2019-03-15T13:48:21.791Z,13.07
2019-03-15T13:50:51.535Z,10.47
2019-03-15T13:53:21.253Z,10.27
2019-03-15T13:55:51.244Z,7.13
2019-03-15T13:58:20.972Z,7.90
2019-03-15T14:00:50.788Z,9.10
2019-03-15T14:03:20.620Z,11.60
2019-03-15T14:05:50.652Z,13.50
2019-03-15T14:08:20.405Z,12.67
2019-03-15T14:10:51.437Z,14.53
2019-03-15T14:13:21.301Z,10.17
2019-03-15T14:15:51.113Z,12.83
2019-03-15T14:18:21.688Z,15.83
2019-03-15T14:20:51.597Z,17.63
2019-03-15T14:23:21.407Z,20.00
2019-03-15T14:25:51.150Z,19.23
2019-03-15T14:28:21.112Z,22.67
2019-03-15T14:30:50.950Z,20.97
2019-03-15T14:33:20.738Z,26.20
2019-03-15T14:35:50.588Z,22.23
2019-03-15T14:38:20.511Z,17.37
2019-03-15T14:40:50.434Z,26.93
2019-03-15T14:43:20.575Z,21.87
2019-03-15T14:45:50.238Z,18.33
2019-03-15T14:48:20.093Z,19.80
2019-03-15T14:50:49.922Z,25.90
2019-03-15T14:53:19.699Z,26.77
2019-03-15T14:55:49.382Z,21.73
2019-03-15T14:58:19.282Z,21.20
2019-03-15T15:00:49.140Z,18.20
2019-03-15T15:03:19.116Z,18.80
2019-03-15T15:05:48.965Z,16.83
2019-03-15T15:08:18.922Z,22.77
2019-03-15T15:10:48.780Z,23.07
2019-03-15T15:13:18.794Z,19.07
2019-03-15T15:15:48.667Z,24.07
2019-03-15T15:18:18.548Z,37.93
2019-03-15T15:20:48.349Z,25.63
2019-03-15T15:23:18.444Z,26.80
2019-03-15T15:25:48.191Z,28.97
2019-03-15T15:28:18.112Z,21.20
2019-03-15T15:30:47.906Z,21.63
2019-03-15T15:33:17.859Z,21.90
2019-03-15T15:35:47.852Z,20.33
2019-03-15T15:38:17.696Z,17.47
2019-03-15T15:40:47.544Z,20.80
2019-03-15T15:43:17.622Z,18.90
2019-03-15T15:45:47.541Z,17.43
2019-03-15T15:48:17.354Z,19.27
2019-03-15T15:50:47.298Z,17.43
2019-03-15T15:53:17.045Z,20.97
2019-03-15T15:55:46.799Z,19.60
2019-03-15T15:58:18.157Z,19.53
2019-03-15T16:00:48.346Z,17.90
2019-03-15T16:03:19.582Z,22.30
2019-03-15T16:05:49.466Z,22.17
2019-03-15T16:08:19.331Z,22.07
2019-03-15T16:10:49.223Z,20.70
2019-03-15T16:13:19.190Z,25.53
2019-03-15T16:15:49.004Z,19.70
2019-03-15T16:18:18.903Z,22.67
2019-03-15T16:20:48.715Z,20.67
2019-03-15T16:23:18.635Z,19.27
2019-03-15T16:25:48.551Z,22.50
2019-03-15T16:28:30.817Z,25.80
2019-03-15T16:30:50.131Z,25.03
2019-03-15T16:33:19.855Z,27.63
2019-03-15T16:35:49.681Z,36.50
2019-03-15T16:38:20.808Z,42.43
2019-03-15T16:40:50.676Z,35.27
2019-03-15T16:43:21.957Z,31.60
2019-03-15T16:45:51.678Z,30.13
2019-03-15T16:48:21.581Z,34.50
2019-03-15T16:50:51.994Z,33.83
2019-03-15T16:53:21.844Z,33.93
2019-03-15T16:55:51.681Z,33.23
2019-03-15T16:58:21.476Z,35.03
2019-03-15T17:00:51.171Z,34.10
2019-03-15T17:03:22.117Z,36.07
2019-03-15T17:05:51.939Z,36.67
2019-03-15T17:08:21.844Z,31.80
2019-03-15T17:10:51.881Z,30.37
2019-03-15T17:13:21.789Z,30.83
2019-03-15T17:15:51.591Z,26.97
2019-03-15T17:18:21.410Z,26.87
2019-03-15T17:20:51.143Z,26.67
2019-03-15T17:23:21.004Z,26.17
2019-03-15T17:25:50.994Z,33.10
2019-03-15T17:28:20.905Z,31.73
2019-03-15T17:30:50.849Z,31.53
2019-03-15T17:33:20.714Z,29.17
2019-03-15T17:35:50.565Z,31.27
2019-03-15T17:38:20.431Z,29.77
2019-03-15T17:40:50.452Z,32.23
2019-03-15T17:43:20.314Z,30.17
2019-03-15T17:45:50.148Z,35.13
2019-03-15T17:48:19.991Z,34.50
2019-03-15T17:50:49.930Z,43.03
2019-03-15T17:53:20.968Z,41.83
2019-03-15T17:55:50.987Z,43.87
2019-03-15T17:58:20.752Z,47.00
2019-03-15T18:00:50.748Z,50.80
2019-03-15T18:03:22.052Z,45.30
2019-03-15T18:05:53.174Z,40.83
2019-03-15T18:08:23.211Z,51.47
2019-03-15T18:10:53.062Z,47.90
2019-03-15T18:13:23.004Z,45.50
2019-03-15T18:15:53.011Z,43.50
2019-03-15T18:18:22.893Z,46.17
2019-03-15T18:20:54.021Z,33.43
2019-03-15T18:23:24.073Z,33.57
2019-03-15T18:25:54.106Z,34.13
2019-03-15T18:28:24.045Z,28.93
2019-03-15T18:30:54.048Z,37.77
2019-03-15T18:33:25.108Z,41.37
2019-03-15T18:35:54.970Z,49.37
2019-03-15T18:38:24.868Z,51.33
2019-03-15T18:40:54.625Z,46.90
2019-03-15T18:43:24.344Z,48.23
2019-03-15T18:45:54.174Z,48.67
2019-03-15T18:48:23.985Z,50.90
2019-03-15T18:50:53.900Z,56.67
2019-03-15T18:53:23.863Z,55.57
2019-03-15T18:55:53.769Z,56.40
2019-03-15T18:58:23.440Z,56.43
2019-03-15T19:00:53.251Z,52.73
2019-03-15T19:03:23.052Z,54.93
2019-03-15T19:05:52.756Z,57.93
2019-03-15T19:08:22.917Z,66.73
2019-03-15T19:10:52.791Z,58.63
2019-03-15T19:13:22.641Z,61.77
2019-03-15T19:15:52.619Z,60.57
2019-03-15T19:18:22.550Z,57.13
2019-03-15T19:20:52.512Z,60.67
2019-03-15T19:23:23.397Z,59.00
2019-03-15T19:25:53.204Z,59.27
2019-03-15T19:28:23.132Z,55.63
2019-03-15T19:30:53.235Z,70.97
2019-03-15T19:33:23.144Z,66.20
2019-03-15T19:35:52.966Z,61.70
2019-03-15T19:38:22.739Z,61.73
2019-03-15T19:40:52.615Z,63.07
2019-03-15T19:43:22.531Z,63.03
2019-03-15T19:45:52.305Z,56.10
2019-03-15T19:48:22.093Z,58.17
2019-03-15T19:50:51.934Z,59.33
2019-03-15T19:53:21.784Z,58.37
2019-03-15T19:55:51.615Z,58.57
2019-03-15T19:58:21.567Z,60.83
2019-03-15T20:00:51.361Z,57.97
2019-03-15T20:03:22.317Z,62.97
2019-03-15T20:05:52.190Z,65.77
2019-03-15T20:08:22.103Z,66.20
2019-03-15T20:10:53.092Z,78.47
2019-03-15T20:13:22.855Z,76.77
2019-03-15T20:15:52.686Z,75.70
2019-03-15T20:18:23.682Z,75.73
2019-03-15T20:20:53.473Z,84.97
2019-03-15T20:23:23.244Z,78.10
2019-03-15T20:25:53.093Z,73.47
2019-03-15T20:28:22.924Z,77.30
2019-03-15T20:30:52.685Z,74.77
2019-03-15T20:33:23.831Z,75.37
2019-03-15T20:35:54.056Z,77.83
2019-03-15T20:38:25.024Z,88.17
2019-03-15T20:40:54.784Z,78.93
2019-03-15T20:43:24.629Z,90.63
2019-03-15T20:45:54.592Z,86.63
2019-03-15T20:48:24.504Z,86.27
2019-03-15T20:50:54.261Z,88.87
2019-03-15T20:53:24.233Z,78.33
2019-03-15T20:55:54.404Z,78.10
2019-03-15T20:58:24.211Z,82.10
2019-03-15T21:00:54.326Z,71.83
2019-03-15T21:03:24.311Z,70.07
2019-03-15T21:05:54.162Z,66.57
2019-03-15T21:08:23.903Z,64.97
2019-03-15T21:10:53.714Z,57.10
2019-03-15T21:13:23.536Z,55.00
2019-03-15T21:15:53.529Z,52.27
2019-03-15T21:18:23.323Z,56.97
2019-03-15T21:20:53.104Z,50.97
2019-03-15T21:23:23.014Z,52.43
2019-03-15T21:25:52.808Z,51.00
2019-03-15T21:28:22.622Z,53.50
2019-03-15T21:30:52.698Z,60.63
2019-03-15T21:33:22.557Z,57.17
2019-03-15T21:35:52.378Z,55.00
2019-03-15T21:38:22.359Z,59.57
2019-03-15T21:40:52.201Z,55.80
2019-03-15T21:43:22.100Z,60.77
2019-03-15T21:45:52.093Z,60.40
2019-03-15T21:48:21.964Z,56.17
2019-03-15T21:50:51.969Z,54.03
2019-03-15T21:53:22.225Z,56.43
2019-03-15T21:55:52.044Z,55.43
2019-03-15T21:58:21.814Z,52.97
2019-03-15T22:01:01.718Z,48.67
2019-03-15T22:03:24.448Z,54.60
2019-03-15T22:05:54.216Z,50.93
2019-03-15T22:08:24.333Z,54.47
2019-03-15T22:10:54.338Z,52.27
2019-03-15T22:13:24.249Z,62.87
2019-03-15T22:16:44.022Z,65.07
2019-03-15T22:19:28.417Z,65.77
2019-03-15T22:22:38.153Z,59.67
2019-03-15T22:25:22.189Z,66.97
2019-03-15T22:28:36.626Z,71.20
2019-03-15T22:31:20.776Z,78.87
2019-03-15T22:34:08.246Z,81.63
2019-03-15T22:36:59.131Z,82.53
2019-03-15T22:40:03.214Z,98.33
2019-03-15T22:42:50.579Z,99.57
2019-03-15T22:45:53.210Z,115.70
2019-03-15T22:48:33.318Z,105.77
2019-03-15T22:51:17.471Z,99.10
2019-03-15T22:53:47.138Z,93.17
2019-03-15T22:56:17.032Z,116.77
2019-03-15T22:58:46.873Z,101.87
2019-03-15T23:01:29.273Z,112.87
2019-03-15T23:03:48.219Z,88.27
2019-03-15T23:06:18.253Z,116.37
2019-03-15T23:08:48.117Z,96.00
2019-03-15T23:11:18.513Z,85.73
2019-03-15T23:13:48.422Z,86.33
2019-03-15T23:16:18.188Z,72.03
2019-03-15T23:18:48.121Z,78.90
2019-03-15T23:21:18.051Z,74.87
2019-03-15T23:23:47.873Z,74.20
2019-03-15T23:26:17.697Z,73.67
2019-03-15T23:28:47.997Z,71.40
2019-03-15T23:31:17.716Z,67.23
2019-03-15T23:33:47.545Z,65.80
2019-03-15T23:36:17.618Z,68.80
2019-03-15T23:38:47.522Z,58.50
2019-03-15T23:41:17.396Z,65.13
2019-03-15T23:43:47.310Z,57.70
2019-03-15T23:46:17.266Z,61.17
2019-03-15T23:48:47.032Z,64.77
2019-03-15T23:51:16.739Z,89.57
2019-03-15T23:53:46.478Z,105.17
2019-03-15T23:56:16.287Z,86.47
2019-03-15T23:58:46.107Z,92.40
